Tatitlek, Alaska
Current Conditions -  °F | °C
As of 1:56 AM on Monday 20 Oct 2014 (Local Time) from PAVD Reporting Station
Overcast Overcast  
Wind Chill: 33°   Ceiling: 8000
Heat Index: 37°   Visibility: 7mi
Dew Point: 25°   Wind: 6mph
Humidity: 60%   Direction: 90°E
Pressure: 29.01"   Gusts: NA
Location:  60.88°N, 146.68°W
Report Text: PAVD 200956Z 09005KT 7SM SCT060 BKN080 OVC100 03/M04 A2901 RMK AO1
Loading
Personal Weather Stations






























Interactive Weather Map
Tropical Storm Tracking
New forecast layout! Learn more

10-Day Weather Forecast

Advertisements
Track Severe Weather on mobile